Weather reports worldwide

Advertisment
Chamonix, France (7469): temperature & dewpoint: 09.11.2018 06:00:00 - 15.11.2018 06:00:00 (CET)Chamonix, France (7469): wind speed & gusts: 09.11.2018 06:00:00 - 15.11.2018 06:00:00 (CET)Chamonix, France (7469): wind direction: 09.11.2018 06:00:00 - 15.11.2018 06:00:00 (CET)Chamonix, France (7469): precipitation: 09.11.2018 06:00:00 - 15.11.2018 06:00:00 (CET)
Date & Time tt [°C] td [°C] ff [km/h] ff [kn] fx [km/h] fx [kn] dd rr [mm]
15.11.2018 06:00:00 - - - - - - - -
15.11.2018 05:00:00 -1,8 -2,1 0 0 4 2 N 0,0
15.11.2018 04:00:00 -1,7 -2,0 0 0 4 2 N 0,0
15.11.2018 03:00:00 -1,5 -1,8 0 0 4 2 N 0,0
15.11.2018 02:00:00 -1,3 -1,6 0 0 4 2 N 0,0
15.11.2018 01:00:00 -1,0 -1,4 0 0 5 3 N -
15.11.2018 00:00:00 -0,4 -0,8 0 0 5 3 N 0,0
14.11.2018 23:00:00 0,0 -0,4 0 0 5 3 N 0,0
14.11.2018 22:00:00 0,6 0,2 0 0 4 2 N 0,0
14.11.2018 21:00:00 1,4 0,8 2 1 4 2 E 0,0
14.11.2018 20:00:00 2,2 1,5 0 0 4 2 N 0,0
14.11.2018 19:00:00 3,4 2,5 0 0 4 2 N -
14.11.2018 18:00:00 5,2 3,5 0 0 4 2 N 0,0
14.11.2018 17:00:00 9,1 4,9 2 1 8 4 SSW 0,0
14.11.2018 16:00:00 13,3 5,7 4 2 8 4 SSW 0,0
14.11.2018 15:00:00 13,8 5,4 4 2 9 5 SSW 0,0
14.11.2018 14:00:00 13,5 3,8 4 2 11 6 SW 0,0
14.11.2018 13:00:00 10,8 4,5 0 0 4 2 N -
14.11.2018 12:00:00 4,0 4,0 0 0 5 3 N 0,0
14.11.2018 11:00:00 0,3 0,2 0 0 5 3 N 0,0
14.11.2018 10:00:00 0,1 0,0 0 0 4 2 N 0,0
14.11.2018 09:00:00 -0,3 -0,4 0 0 4 2 N 0,0
14.11.2018 08:00:00 -0,6 -0,9 0 0 5 3 N 0,0
14.11.2018 07:00:00 -0,5 -0,8 0 0 4 2 N -
14.11.2018 06:00:00 -0,2 -0,5 0 0 4 2 N 0,0
14.11.2018 05:00:00 0,4 0,1 0 0 4 2 N 0,0
14.11.2018 04:00:00 0,6 0,3 0 0 9 5 N 0,0
14.11.2018 03:00:00 1,2 0,9 0 0 4 2 N 0,0
14.11.2018 02:00:00 1,3 0,9 0 0 2 1 N 0,0
14.11.2018 01:00:00 2,0 1,6 0 0 4 2 N -
14.11.2018 00:00:00 2,8 2,4 0 0 4 2 N 0,0
13.11.2018 23:00:00 3,5 3,1 0 0 5 3 N 0,0
13.11.2018 22:00:00 4,2 3,6 0 0 4 2 N 0,0
13.11.2018 21:00:00 5,6 4,9 0 0 4 2 N 0,0
13.11.2018 20:00:00 7,5 6,9 0 0 8 4 N 0,0
13.11.2018 19:00:00 8,0 7,4 2 1 5 3 NNE -
13.11.2018 18:00:00 9,1 8,2 2 1 9 5 SE 0,2
13.11.2018 17:00:00 10,1 8,2 0 0 11 6 N 0,0
13.11.2018 16:00:00 10,8 8,0 9 5 21 11 WSW 0,2
13.11.2018 15:00:00 12,7 6,9 5 3 15 8 S 0,0
13.11.2018 14:00:00 14,0 7,1 5 3 11 6 SW 0,0
13.11.2018 13:00:00 13,0 6,3 4 2 8 4 W -
13.11.2018 12:00:00 10,5 5,9 4 2 8 4 WSW 0,0
13.11.2018 11:00:00 9,1 6,0 0 0 8 4 N 0,0
13.11.2018 10:00:00 7,6 5,6 2 1 5 3 E 0,0
13.11.2018 09:00:00 5,6 4,4 2 1 8 4 ENE 0,0
13.11.2018 08:00:00 4,7 3,7 0 0 8 4 N 0,0
13.11.2018 07:00:00 4,2 3,3 0 0 4 2 N -
13.11.2018 06:00:00 3,8 2,8 0 0 5 3 N 0,0
13.11.2018 05:00:00 3,9 2,7 0 0 8 4 N 0,0
13.11.2018 04:00:00 4,3 3,0 4 2 8 4 E 0,0
13.11.2018 03:00:00 5,1 3,1 0 0 8 4 N 0,0
13.11.2018 02:00:00 5,9 3,6 2 1 5 3 SW 0,0
13.11.2018 01:00:00 6,4 3,2 2 1 9 5 S -
13.11.2018 00:00:00 8,0 3,3 4 2 22 12 SSE 0,0
12.11.2018 23:00:00 8,1 3,4 4 2 11 6 WSW 0,0
12.11.2018 22:00:00 8,1 3,4 2 1 11 6 S 0,0
12.11.2018 21:00:00 7,4 3,4 2 1 8 4 SSW 0,0
12.11.2018 20:00:00 7,7 4,1 4 2 9 5 SW 0,0
12.11.2018 19:00:00 7,6 3,8 0 0 5 3 N -
12.11.2018 18:00:00 9,5 3,5 2 1 8 4 S 0,0
12.11.2018 17:00:00 13,0 3,6 2 1 15 8 NNE 0,0
12.11.2018 16:00:00 16,5 3,2 4 2 18 10 NNE 0,0
12.11.2018 15:00:00 17,2 3,1 4 2 16 9 NE 0,0
12.11.2018 14:00:00 17,1 2,7 5 3 29 16 ENE 0,0
12.11.2018 13:00:00 16,3 3,0 11 6 34 18 NE -
12.11.2018 12:00:00 15,2 2,4 8 4 34 18 ENE 0,0
12.11.2018 11:00:00 12,7 2,2 9 5 39 21 ENE 0,0
12.11.2018 10:00:00 12,3 2,2 13 7 48 26 NE 0,0
12.11.2018 09:00:00 12,0 1,6 15 8 44 24 NNE 0,0
12.11.2018 08:00:00 11,9 1,8 11 6 42 23 NE 0,0
12.11.2018 07:00:00 11,7 1,6 11 6 50 27 NE -
12.11.2018 06:00:00 11,6 1,8 13 7 48 26 NE 0,0
12.11.2018 05:00:00 11,5 1,7 11 6 41 22 ENE 0,0
12.11.2018 04:00:00 11,2 1,7 11 6 50 27 NE 0,0
12.11.2018 03:00:00 11,3 1,5 13 7 41 22 NE 0,0
12.11.2018 02:00:00 10,5 1,8 9 5 37 20 NNE 0,0
12.11.2018 01:00:00 9,1 2,4 8 4 21 11 N -
12.11.2018 00:00:00 7,3 2,0 4 2 26 14 W 0,0
11.11.2018 23:00:00 10,6 1,7 5 3 29 16 NNE 0,0
11.11.2018 22:00:00 8,4 2,4 5 3 22 12 N 0,0
11.11.2018 21:00:00 9,5 1,9 4 2 22 12 SSW 0,0
11.11.2018 20:00:00 11,7 1,3 5 3 34 18 N 0,0
11.11.2018 19:00:00 12,2 1,8 9 5 39 21 NNE -
11.11.2018 18:00:00 12,3 2,2 9 5 26 14 NE 0,0
11.11.2018 17:00:00 12,3 3,2 4 2 18 10 NE 0,0
11.11.2018 16:00:00 13,8 2,7 4 2 21 11 NNE 0,0
11.11.2018 15:00:00 15,3 4,9 0 0 8 4 N 0,0
11.11.2018 14:00:00 16,1 4,2 0 0 8 4 N 0,0
11.11.2018 13:00:00 15,2 4,5 2 1 8 4 S -
11.11.2018 12:00:00 11,9 8,2 0 0 8 4 N 0,0
11.11.2018 11:00:00 6,0 5,9 2 1 8 4 S 0,0
11.11.2018 10:00:00 5,3 5,2 0 0 8 4 N 0,0
11.11.2018 09:00:00 3,4 3,1 4 2 8 4 N 0,0
11.11.2018 08:00:00 3,8 3,5 0 0 8 4 N 0,0
11.11.2018 07:00:00 5,4 5,1 4 2 9 5 NNE -
11.11.2018 06:00:00 5,3 5,0 2 1 8 4 E 0,0
11.11.2018 05:00:00 5,7 5,3 0 0 8 4 N 0,0
11.11.2018 04:00:00 6,2 5,9 4 2 8 4 WSW 0,2
11.11.2018 03:00:00 6,2 5,8 2 1 8 4 E 0,0
11.11.2018 02:00:00 6,0 5,4 0 0 8 4 N 0,0
11.11.2018 01:00:00 6,4 5,7 4 2 8 4 N -
11.11.2018 00:00:00 7,1 6,0 0 0 9 5 N 0,0
10.11.2018 23:00:00 7,0 5,9 4 2 11 6 E 0,0
10.11.2018 22:00:00 6,5 5,6 2 1 8 4 E 0,0
10.11.2018 21:00:00 7,1 5,6 0 0 11 6 N 0,0
10.11.2018 20:00:00 7,9 5,9 4 2 11 6 S 0,0
10.11.2018 19:00:00 8,4 5,5 2 1 9 5 S -
10.11.2018 18:00:00 9,7 5,5 2 1 29 16 SSW 0,0
10.11.2018 17:00:00 10,7 5,0 5 3 21 11 WNW 0,0
10.11.2018 16:00:00 11,1 5,2 2 1 11 6 SW 0,0
10.11.2018 15:00:00 12,4 4,4 2 1 13 7 SW 0,0
10.11.2018 14:00:00 14,0 3,7 4 2 15 8 SSW 0,0
10.11.2018 13:00:00 12,3 4,0 0 0 9 5 N -
10.11.2018 12:00:00 11,4 4,4 0 0 4 2 N 0,0
10.11.2018 11:00:00 10,0 4,8 0 0 11 6 N 0,0
10.11.2018 10:00:00 7,5 4,4 4 2 11 6 SW 0,0
10.11.2018 09:00:00 4,5 2,8 4 2 11 6 SW 0,0
10.11.2018 08:00:00 4,1 2,3 4 2 15 8 WSW 0,0
10.11.2018 07:00:00 3,4 2,1 4 2 13 7 WNW -
10.11.2018 06:00:00 2,5 2,1 4 2 15 8 W 0,0
10.11.2018 05:00:00 1,8 1,4 2 1 9 5 SE 0,0
10.11.2018 04:00:00 1,5 0,9 4 2 11 6 SW 0,0
10.11.2018 03:00:00 2,7 1,7 0 0 8 4 N 0,0
10.11.2018 02:00:00 3,0 2,1 2 1 11 6 SSW 0,0
10.11.2018 01:00:00 3,0 2,3 2 1 8 4 SSW -
10.11.2018 00:00:00 3,1 2,4 0 0 9 5 N 0,0
09.11.2018 23:00:00 2,7 2,4 2 1 11 6 SE 0,0
09.11.2018 22:00:00 2,4 2,0 0 0 8 4 N 0,0
09.11.2018 21:00:00 2,6 2,2 4 2 9 5 W 0,0
09.11.2018 20:00:00 3,2 2,6 2 1 5 3 ESE 0,0
09.11.2018 19:00:00 3,9 3,0 0 0 8 4 N -
09.11.2018 18:00:00 5,3 3,8 2 1 8 4 N 0,0
09.11.2018 17:00:00 8,2 4,8 2 1 13 7 S 0,0
09.11.2018 16:00:00 10,4 5,6 2 1 11 6 S 0,0
09.11.2018 15:00:00 11,3 5,2 5 3 16 9 SW 0,0
09.11.2018 14:00:00 12,5 4,2 5 3 13 7 SSW 0,0
09.11.2018 13:00:00 15,2 3,0 4 2 15 8 S -
09.11.2018 12:00:00 10,3 8,2 4 2 9 5 SE 0,0
09.11.2018 11:00:00 5,7 5,6 0 0 8 4 N 0,0
09.11.2018 10:00:00 5,5 5,4 2 1 9 5 W 0,0
09.11.2018 09:00:00 4,5 4,4 0 0 11 6 N 0,0
09.11.2018 08:00:00 2,5 2,4 2 1 15 8 NNE 0,0
09.11.2018 07:00:00 1,5 1,4 4 2 13 7 S -
09.11.2018 06:00:00 1,1 0,8 2 1 5 3 NE 0,0

tt = temperature
td = dewpoint
ff = wind speed
fx = gusts
dd = wind direction
rr = precipitation

Next stations